Time;durP1;ratioP1;P1;durP2;ratioP2;P2;SDS_P1;SDS_P2;PMS_P1;PMS_P2;Temp;Humidity;BMP_temperature;BMP_pressure;BME280_temperature;BME280_humidity;BME280_pressure;Samples;Min_cycle;Max_cycle;Signal;HPM_P1;HPM_P2
2024/01/17 00:01:58;;;;;;;10.33;5.60;;;0.30;99.90;;;;;;5100593;27;20043;-71
2024/01/17 00:04:27;;;;;;;10.77;6.17;;;0.20;99.90;;;;;;5110087;27;20096;-71
2024/01/17 00:06:55;;;;;;;8.97;5.60;;;0.20;99.90;;;;;;5131172;27;20118;-72
2024/01/17 00:09:21;;;;;;;11.13;6.17;;;0.30;99.90;;;;;;5123914;27;20046;-71
2024/01/17 00:11:49;;;;;;;8.93;5.78;;;0.30;99.90;;;;;;5120951;27;20053;-69
2024/01/17 00:14:15;;;;;;;11.27;5.83;;;0.20;99.90;;;;;;5125398;27;20031;-69
2024/01/17 00:16:40;;;;;;;9.97;6.60;;;0.30;99.90;;;;;;5123582;27;20042;-69
2024/01/17 00:19:06;;;;;;;10.50;6.63;;;0.30;99.90;;;;;;5114911;27;20068;-69
2024/01/17 00:21:32;;;;;;;9.17;6.90;;;0.30;99.90;;;;;;5120094;27;20122;-70
2024/01/17 00:23:58;;;;;;;10.57;7.03;;;0.20;99.90;;;;;;5121374;27;20122;-69
2024/01/17 00:26:23;;;;;;;11.07;6.90;;;0.30;99.90;;;;;;5122813;27;21436;-69
2024/01/17 00:28:50;;;;;;;11.70;7.17;;;0.30;99.90;;;;;;5116110;27;20035;-69
2024/01/17 00:31:15;;;;;;;12.43;7.47;;;0.30;99.90;;;;;;5111501;27;20946;-69
2024/01/17 00:33:41;;;;;;;9.63;7.20;;;0.30;99.90;;;;;;5122853;27;20039;-70
2024/01/17 00:36:08;;;;;;;13.27;6.90;;;0.30;99.90;;;;;;5122313;27;20130;-69
2024/01/17 00:38:34;;;;;;;9.93;7.00;;;0.30;99.90;;;;;;5118592;27;20731;-72
2024/01/17 00:41:00;;;;;;;10.80;7.67;;;0.30;99.90;;;;;;5128388;27;20034;-72
2024/01/17 00:43:26;;;;;;;10.83;7.60;;;0.30;99.90;;;;;;5127797;27;20042;-71
2024/01/17 00:45:51;;;;;;;12.07;7.77;;;0.30;99.90;;;;;;5113502;27;20849;-71
2024/01/17 00:48:18;;;;;;;10.60;7.33;;;0.30;99.90;;;;;;5120140;27;20035;-72
2024/01/17 00:50:44;;;;;;;11.47;7.93;;;0.20;99.90;;;;;;5125561;27;20434;-72
2024/01/17 00:53:10;;;;;;;11.27;8.43;;;0.20;99.90;;;;;;5127906;27;20066;-69
2024/01/17 00:55:36;;;;;;;13.20;8.37;;;0.30;99.90;;;;;;5122098;27;20043;-69
2024/01/17 00:58:02;;;;;;;13.03;9.40;;;0.20;99.90;;;;;;5116605;27;20065;-69
2024/01/17 01:00:27;;;;;;;13.07;8.90;;;0.20;99.90;;;;;;5122055;27;20039;-70
2024/01/17 01:02:53;;;;;;;14.40;9.00;;;0.20;99.90;;;;;;5118196;27;20045;-69
2024/01/17 01:05:19;;;;;;;13.40;9.23;;;0.30;99.90;;;;;;5107166;27;20683;-70
2024/01/17 01:07:47;;;;;;;16.10;9.70;;;0.20;99.90;;;;;;5110680;27;20062;-69
2024/01/17 01:10:13;;;;;;;15.70;10.30;;;0.20;99.90;;;;;;5138455;27;20496;-69
2024/01/17 01:12:39;;;;;;;14.77;10.20;;;0.20;99.90;;;;;;5118865;27;20031;-69
2024/01/17 01:15:06;;;;;;;13.43;10.20;;;0.20;99.90;;;;;;5114371;27;20049;-69
2024/01/17 01:17:31;;;;;;;13.17;10.37;;;0.10;99.90;;;;;;5128710;27;20050;-69
2024/01/17 01:19:57;;;;;;;12.27;10.30;;;0.20;99.90;;;;;;5111305;27;20521;-69
2024/01/17 01:22:23;;;;;;;13.80;10.43;;;0.10;99.90;;;;;;5114287;27;20027;-69
2024/01/17 01:24:49;;;;;;;13.77;10.47;;;0.10;99.90;;;;;;5105448;27;20501;-69
2024/01/17 01:27:15;;;;;;;16.50;12.10;;;0.10;99.90;;;;;;5121228;27;20125;-70
2024/01/17 01:29:41;;;;;;;11.63;10.13;;;0.10;99.90;;;;;;5126081;27;20047;-69
2024/01/17 01:32:07;;;;;;;16.20;10.97;;;0.10;99.90;;;;;;5117519;27;20049;-73
2024/01/17 01:34:33;;;;;;;13.37;11.33;;;0.20;99.90;;;;;;5128506;27;20385;-73
2024/01/17 01:37:02;;;;;;;15.63;12.33;;;0.10;99.90;;;;;;5125609;27;20390;-73
2024/01/17 01:39:28;;;;;;;14.27;11.70;;;0.10;99.90;;;;;;5123879;27;20070;-73
2024/01/17 01:41:54;;;;;;;16.13;12.63;;;0.10;99.90;;;;;;5116405;27;20404;-73
2024/01/17 01:44:20;;;;;;;14.97;12.93;;;0.10;99.90;;;;;;5114483;27;20039;-72
2024/01/17 01:46:47;;;;;;;17.07;12.63;;;0.10;99.90;;;;;;5134100;27;20042;-73
2024/01/17 01:49:15;;;;;;;16.87;13.67;;;0.10;99.90;;;;;;5111878;27;20035;-73
2024/01/17 01:51:44;;;;;;;15.90;12.37;;;0.10;99.90;;;;;;5113589;27;21679;-73
2024/01/17 01:54:13;;;;;;;15.03;12.60;;;0.10;99.90;;;;;;5115215;27;20050;-72
2024/01/17 01:56:40;;;;;;;16.23;12.43;;;0.10;99.90;;;;;;5122200;27;20039;-72
2024/01/17 01:59:08;;;;;;;15.50;12.40;;;0.00;99.90;;;;;;5114694;27;20049;-72
2024/01/17 02:01:34;;;;;;;14.63;12.40;;;0.00;99.90;;;;;;5120620;27;20035;-72
2024/01/17 02:04:01;;;;;;;15.53;12.43;;;0.00;99.90;;;;;;5101084;27;20035;-72
2024/01/17 02:06:34;;;;;;;14.43;12.37;;;0.00;99.90;;;;;;5112537;27;20495;-73
2024/01/17 02:09:03;;;;;;;16.60;13.17;;;0.00;99.90;;;;;;5129418;27;20084;-73
2024/01/17 02:11:29;;;;;;;16.50;13.40;;;0.00;99.90;;;;;;5126339;27;20532;-73
2024/01/17 02:13:56;;;;;;;15.30;13.00;;;0.10;99.90;;;;;;5117943;27;20042;-73
2024/01/17 02:16:23;;;;;;;19.37;14.90;;;0.10;99.90;;;;;;5102417;27;20042;-73
2024/01/17 02:18:50;;;;;;;17.17;14.50;;;0.00;99.90;;;;;;5122371;27;20636;-73
2024/01/17 02:21:16;;;;;;;16.90;13.47;;;0.10;99.90;;;;;;5116743;27;20117;-73
2024/01/17 02:23:42;;;;;;;16.63;14.07;;;0.00;99.90;;;;;;5115849;27;20097;-73
2024/01/17 02:26:08;;;;;;;17.03;14.50;;;-0.10;99.90;;;;;;5118618;27;20042;-73
2024/01/17 02:28:34;;;;;;;17.00;15.03;;;0.00;99.90;;;;;;5097758;27;20103;-73
2024/01/17 02:31:00;;;;;;;19.00;15.53;;;0.00;99.90;;;;;;5116463;27;20046;-73
2024/01/17 02:33:27;;;;;;;17.33;15.07;;;0.00;99.90;;;;;;5112198;27;20448;-73
2024/01/17 02:35:52;;;;;;;17.40;14.87;;;-0.10;99.90;;;;;;5127855;27;20129;-73
2024/01/17 02:38:18;;;;;;;22.53;16.13;;;0.00;99.90;;;;;;5114166;27;20122;-72
2024/01/17 02:40:44;;;;;;;17.80;15.30;;;0.00;99.90;;;;;;5135152;27;20054;-72
2024/01/17 02:43:10;;;;;;;19.03;14.67;;;0.00;99.90;;;;;;5113226;27;20047;-73
2024/01/17 02:45:36;;;;;;;19.10;16.23;;;0.00;99.90;;;;;;5116560;27;20103;-73
2024/01/17 02:48:02;;;;;;;18.80;15.10;;;-0.10;99.90;;;;;;5117297;27;20050;-69
2024/01/17 02:50:29;;;;;;;18.37;15.00;;;-0.10;99.90;;;;;;5116604;27;20505;-69
2024/01/17 02:52:54;;;;;;;16.53;14.87;;;0.00;99.90;;;;;;5121727;27;20047;-69
2024/01/17 02:55:23;;;;;;;20.93;16.07;;;-0.10;99.90;;;;;;5118192;27;20054;-69
2024/01/17 02:57:50;;;;;;;20.47;17.27;;;-0.10;99.90;;;;;;5097816;27;20039;-69
2024/01/17 03:00:17;;;;;;;18.93;15.50;;;-0.10;99.90;;;;;;5130472;27;20054;-69
2024/01/17 03:02:43;;;;;;;19.37;16.13;;;-0.10;99.90;;;;;;5128959;27;20103;-69
2024/01/17 03:05:09;;;;;;;17.47;15.57;;;-0.10;99.90;;;;;;5123918;27;20039;-69
2024/01/17 03:07:35;;;;;;;19.97;16.90;;;-0.10;99.90;;;;;;5127763;27;20078;-69
2024/01/17 03:10:00;;;;;;;18.37;16.43;;;-0.10;99.90;;;;;;5140114;27;20070;-69
2024/01/17 03:12:27;;;;;;;20.53;17.47;;;-0.10;99.90;;;;;;5128644;27;20065;-69
2024/01/17 03:14:53;;;;;;;19.13;17.13;;;-0.10;99.90;;;;;;5121786;27;20039;-69
2024/01/17 03:17:18;;;;;;;18.57;16.33;;;-0.10;99.90;;;;;;5127120;27;20046;-69
2024/01/17 03:19:46;;;;;;;18.97;16.77;;;-0.10;99.90;;;;;;5122208;27;20305;-69
2024/01/17 03:22:12;;;;;;;20.63;16.13;;;-0.10;99.90;;;;;;5128759;27;20069;-69
2024/01/17 03:24:38;;;;;;;20.10;16.70;;;-0.10;99.90;;;;;;5120315;27;20046;-69
2024/01/17 03:27:04;;;;;;;21.23;17.80;;;-0.10;99.90;;;;;;5119805;27;20119;-69
2024/01/17 03:29:30;;;;;;;19.10;16.70;;;-0.20;99.90;;;;;;5108898;27;20034;-69
2024/01/17 03:31:56;;;;;;;19.80;17.70;;;-0.20;99.90;;;;;;5117729;27;20050;-69
2024/01/17 03:34:22;;;;;;;22.50;17.47;;;-0.10;99.90;;;;;;5126786;27;20105;-69
2024/01/17 03:36:48;;;;;;;23.20;17.93;;;-0.20;99.90;;;;;;5117250;27;20516;-69
2024/01/17 03:39:13;;;;;;;23.03;17.33;;;-0.20;99.90;;;;;;5125820;27;20561;-69
2024/01/17 03:41:39;;;;;;;21.57;17.77;;;-0.20;99.90;;;;;;5148665;27;20097;-69
2024/01/17 03:44:05;;;;;;;23.47;17.87;;;-0.20;99.90;;;;;;5110842;27;20038;-69
2024/01/17 03:46:31;;;;;;;20.80;16.57;;;-0.20;99.90;;;;;;5112641;27;20047;-69
2024/01/17 03:48:57;;;;;;;23.20;17.30;;;-0.10;99.90;;;;;;5131201;27;20094;-69
2024/01/17 03:51:23;;;;;;;19.43;16.80;;;-0.10;99.90;;;;;;5124352;27;20038;-69
2024/01/17 03:53:49;;;;;;;22.93;18.13;;;-0.20;99.90;;;;;;5134118;27;20046;-69
2024/01/17 03:56:15;;;;;;;20.20;17.73;;;-0.20;99.90;;;;;;5123680;27;20046;-69
2024/01/17 03:58:43;;;;;;;21.87;18.57;;;-0.20;99.90;;;;;;5119696;27;20078;-69
2024/01/17 04:01:11;;;;;;;20.20;18.10;;;-0.20;99.90;;;;;;5120672;27;20068;-69
2024/01/17 04:03:36;;;;;;;23.20;17.73;;;-0.20;99.90;;;;;;5121374;27;20038;-71
2024/01/17 04:06:05;;;;;;;20.47;18.27;;;-0.20;99.90;;;;;;5117878;27;20050;-70
2024/01/17 04:08:31;;;;;;;20.83;18.30;;;-0.30;99.90;;;;;;5125395;27;20046;-70
2024/01/17 04:10:57;;;;;;;22.27;18.30;;;-0.20;99.90;;;;;;5122881;27;20039;-70
2024/01/17 04:13:23;;;;;;;20.97;18.60;;;-0.30;99.90;;;;;;5125435;27;20042;-70
2024/01/17 04:15:48;;;;;;;22.90;17.97;;;-0.30;99.90;;;;;;5119956;27;20096;-70
2024/01/17 04:18:14;;;;;;;22.80;18.93;;;-0.30;99.90;;;;;;5122513;27;20039;-70
2024/01/17 04:20:40;;;;;;;20.47;18.17;;;-0.30;99.90;;;;;;5121859;27;20047;-70
2024/01/17 04:23:06;;;;;;;20.07;18.00;;;-0.30;99.90;;;;;;5120167;27;20041;-70
2024/01/17 04:25:32;;;;;;;21.87;19.57;;;-0.30;99.90;;;;;;5119344;27;20133;-70
2024/01/17 04:27:58;;;;;;;22.70;18.90;;;-0.30;99.90;;;;;;5118686;27;20046;-70
2024/01/17 04:30:27;;;;;;;22.70;19.00;;;-0.40;99.90;;;;;;5142388;27;20038;-70
2024/01/17 04:32:52;;;;;;;23.37;18.23;;;-0.40;99.90;;;;;;5130835;27;20062;-70
2024/01/17 04:35:22;;;;;;;23.37;18.70;;;-0.40;99.90;;;;;;5122281;27;20046;-70
2024/01/17 04:37:47;;;;;;;20.20;17.83;;;-0.40;99.90;;;;;;5109920;27;20046;-69
2024/01/17 04:40:13;;;;;;;22.73;19.07;;;-0.30;99.90;;;;;;5124010;27;20061;-69
2024/01/17 04:42:39;;;;;;;21.53;19.00;;;-0.50;99.90;;;;;;5116455;27;20059;-69
2024/01/17 04:45:05;;;;;;;21.73;19.30;;;-0.50;99.90;;;;;;5128947;27;20179;-69
2024/01/17 04:47:31;;;;;;;23.27;19.60;;;-0.50;99.90;;;;;;5097766;27;20038;-69
2024/01/17 04:49:57;;;;;;;20.63;18.37;;;-0.50;99.90;;;;;;5127140;27;20050;-69
2024/01/17 04:52:23;;;;;;;21.17;18.90;;;-0.50;99.90;;;;;;5117820;27;20043;-69
2024/01/17 04:54:49;;;;;;;22.67;19.63;;;-0.50;99.90;;;;;;5121221;27;20058;-69
2024/01/17 04:57:15;;;;;;;20.73;18.50;;;-0.50;99.90;;;;;;5119132;27;20449;-69
2024/01/17 04:59:42;;;;;;;21.33;18.53;;;-0.60;99.90;;;;;;5110372;27;20054;-69
2024/01/17 05:02:08;;;;;;;20.63;18.23;;;-0.60;99.90;;;;;;5120945;27;20493;-69
2024/01/17 05:04:34;;;;;;;21.03;18.60;;;-0.50;99.90;;;;;;5106202;27;20143;-69
2024/01/17 05:07:00;;;;;;;19.97;17.67;;;-0.60;99.90;;;;;;5125796;27;20504;-69
2024/01/17 05:09:26;;;;;;;21.73;19.43;;;-0.60;99.90;;;;;;5120213;27;20062;-69
2024/01/17 05:11:52;;;;;;;21.33;17.80;;;-0.60;99.90;;;;;;5111613;27;20064;-68
2024/01/17 05:14:18;;;;;;;22.90;18.50;;;-0.50;99.90;;;;;;5121700;27;20049;-68
2024/01/17 05:16:44;;;;;;;21.30;18.90;;;-0.50;99.90;;;;;;5112152;27;20051;-69
2024/01/17 05:19:10;;;;;;;20.87;18.67;;;-0.60;99.90;;;;;;5120575;27;20055;-69
2024/01/17 05:21:36;;;;;;;20.23;18.13;;;-0.50;99.90;;;;;;5127192;27;20404;-69
2024/01/17 05:24:01;;;;;;;19.80;17.70;;;-0.60;99.90;;;;;;5132989;27;20047;-68
2024/01/17 05:26:27;;;;;;;21.07;18.00;;;-0.50;99.90;;;;;;5119067;27;20493;-69
2024/01/17 05:28:53;;;;;;;19.70;17.60;;;-0.50;99.90;;;;;;5122858;27;20042;-69
2024/01/17 05:31:19;;;;;;;20.20;17.83;;;-0.50;99.90;;;;;;5115167;27;20043;-69
2024/01/17 05:33:45;;;;;;;19.53;17.53;;;-0.60;99.90;;;;;;5121362;27;20512;-69
2024/01/17 05:36:11;;;;;;;20.10;17.50;;;-0.50;99.90;;;;;;5123168;27;20085;-69
2024/01/17 05:38:37;;;;;;;19.80;17.03;;;-0.50;99.90;;;;;;5131418;27;20136;-69
2024/01/17 05:41:03;;;;;;;19.13;16.73;;;-0.50;99.90;;;;;;5115592;27;20042;-69
2024/01/17 05:43:30;;;;;;;18.83;16.30;;;-0.50;99.90;;;;;;5118924;27;20102;-69
2024/01/17 05:45:59;;;;;;;18.90;16.80;;;-0.50;99.90;;;;;;5121931;27;20041;-69
2024/01/17 05:48:25;;;;;;;20.83;16.93;;;-0.50;99.90;;;;;;5115368;27;20424;-69
2024/01/17 05:50:51;;;;;;;18.50;16.70;;;-0.50;99.90;;;;;;5123339;27;20447;-70
2024/01/17 05:53:17;;;;;;;20.53;16.63;;;-0.50;99.90;;;;;;5108569;27;20670;-70
2024/01/17 05:55:43;;;;;;;17.67;15.23;;;-0.50;99.90;;;;;;5124291;27;20083;-70
2024/01/17 05:58:09;;;;;;;19.37;16.10;;;-0.50;99.90;;;;;;5122736;27;20046;-70
2024/01/17 06:00:35;;;;;;;17.53;15.73;;;-0.50;99.90;;;;;;5100967;27;20450;-70
2024/01/17 06:03:01;;;;;;;17.97;15.90;;;-0.50;99.90;;;;;;5119272;27;20051;-70
2024/01/17 06:05:27;;;;;;;17.10;15.40;;;-0.50;99.90;;;;;;5128068;27;20538;-70
2024/01/17 06:07:52;;;;;;;19.17;15.67;;;-0.50;99.90;;;;;;5125603;27;20074;-70
2024/01/17 06:10:18;;;;;;;18.83;15.90;;;-0.50;99.90;;;;;;5118441;27;20050;-70
2024/01/17 06:12:44;;;;;;;16.50;14.80;;;-0.60;99.90;;;;;;5117024;27;20096;-70
2024/01/17 06:15:17;;;;;;;18.20;14.63;;;-0.50;99.90;;;;;;5119165;27;20496;-70
2024/01/17 06:17:43;;;;;;;14.83;13.20;;;-0.50;99.90;;;;;;5121983;27;20047;-70
2024/01/17 06:20:13;;;;;;;19.93;15.27;;;-0.50;99.90;;;;;;5113771;27;20047;-70
2024/01/17 06:22:39;;;;;;;16.70;13.82;;;-0.70;99.90;;;;;;5123841;27;20050;-70
2024/01/17 06:25:06;;;;;;;17.77;14.50;;;-0.60;99.90;;;;;;5120749;27;20054;-70
2024/01/17 06:27:32;;;;;;;18.60;14.50;;;-0.50;99.90;;;;;;5111604;27;20623;-70
2024/01/17 06:29:58;;;;;;;16.60;14.90;;;-0.50;99.90;;;;;;5123582;27;20066;-70
2024/01/17 06:32:23;;;;;;;17.93;14.23;;;-0.50;99.90;;;;;;5123915;27;20030;-70
2024/01/17 06:34:50;;;;;;;20.80;16.30;;;-0.50;99.90;;;;;;5128655;27;20038;-70
2024/01/17 06:37:19;;;;;;;18.07;14.83;;;-0.50;99.90;;;;;;5114543;27;20140;-70
2024/01/17 06:39:45;;;;;;;17.90;16.03;;;-0.50;99.90;;;;;;5106371;27;20050;-70
2024/01/17 06:42:11;;;;;;;17.43;14.87;;;-0.50;99.90;;;;;;5114351;27;20500;-70
2024/01/17 06:44:37;;;;;;;18.60;14.73;;;-0.60;99.90;;;;;;5123393;27;20038;-70
2024/01/17 06:47:03;;;;;;;19.67;17.00;;;-0.60;99.90;;;;;;5111006;27;20038;-70
2024/01/17 06:49:29;;;;;;;17.87;14.80;;;-0.60;99.90;;;;;;5124508;27;20051;-70
2024/01/17 06:51:56;;;;;;;20.23;15.60;;;-0.60;99.90;;;;;;5122723;27;20057;-70
2024/01/17 06:54:22;;;;;;;19.97;15.37;;;-0.70;99.90;;;;;;5123558;27;20396;-70
2024/01/17 06:56:47;;;;;;;19.77;15.70;;;-0.70;99.90;;;;;;5125214;27;20035;-70
2024/01/17 06:59:13;;;;;;;18.20;16.30;;;-0.80;99.90;;;;;;5117044;27;20035;-70
2024/01/17 07:01:40;;;;;;;16.67;14.97;;;-0.80;99.90;;;;;;5117242;27;20415;-70
2024/01/17 07:04:06;;;;;;;18.93;16.33;;;-0.90;99.90;;;;;;5115703;27;20563;-70
2024/01/17 07:06:32;;;;;;;22.07;16.43;;;-0.90;99.90;;;;;;5138171;27;20058;-70
2024/01/17 07:08:59;;;;;;;19.07;16.30;;;-1.00;99.90;;;;;;5116280;27;20055;-70
2024/01/17 07:11:24;;;;;;;17.30;15.23;;;-1.00;99.90;;;;;;5117373;27;20491;-70
2024/01/17 07:13:50;;;;;;;18.87;16.00;;;-1.00;99.90;;;;;;5117095;27;20035;-70
2024/01/17 07:16:16;;;;;;;19.70;16.90;;;-1.10;99.90;;;;;;5118383;27;20061;-70
2024/01/17 07:18:43;;;;;;;17.17;15.37;;;-1.10;99.90;;;;;;5119049;27;20069;-70
2024/01/17 07:21:08;;;;;;;20.07;16.53;;;-1.20;99.90;;;;;;5119192;27;20047;-70
2024/01/17 07:23:34;;;;;;;18.13;15.80;;;-1.20;99.90;;;;;;5098865;27;20043;-69
2024/01/17 07:26:00;;;;;;;17.67;15.50;;;-1.20;99.90;;;;;;5118644;27;20062;-69
2024/01/17 07:28:26;;;;;;;20.23;15.43;;;-1.30;99.90;;;;;;5132447;27;20117;-69
2024/01/17 07:30:52;;;;;;;17.33;15.43;;;-1.30;99.90;;;;;;5101904;27;20133;-69
2024/01/17 07:33:18;;;;;;;19.13;17.10;;;-1.30;99.90;;;;;;5095903;27;20106;-68
2024/01/17 07:35:44;;;;;;;20.20;16.83;;;-1.30;99.90;;;;;;5096147;27;20046;-68
2024/01/17 07:38:10;;;;;;;19.53;15.90;;;-1.30;99.90;;;;;;5120701;27;20057;-68
2024/01/17 07:40:37;;;;;;;23.23;16.20;;;-1.40;99.90;;;;;;5118334;27;20030;-68
2024/01/17 07:43:03;;;;;;;18.13;16.13;;;-1.50;99.90;;;;;;5111757;27;20116;-68
2024/01/17 07:45:29;;;;;;;20.03;16.37;;;-1.50;99.90;;;;;;5115527;27;20446;-68
2024/01/17 07:47:55;;;;;;;17.87;15.93;;;-1.50;99.90;;;;;;5114757;27;20043;-68
2024/01/17 07:50:21;;;;;;;17.67;15.53;;;-1.50;99.90;;;;;;5122249;27;20366;-68
2024/01/17 07:52:47;;;;;;;18.53;16.17;;;-1.50;99.90;;;;;;5117244;27;20045;-68
2024/01/17 07:55:13;;;;;;;20.13;16.50;;;-1.60;99.90;;;;;;5102269;27;20039;-68
2024/01/17 07:57:38;;;;;;;20.40;16.30;;;-1.60;99.90;;;;;;5127796;27;20052;-72
2024/01/17 08:00:04;;;;;;;19.00;16.97;;;-1.60;99.90;;;;;;5124620;27;20047;-71
2024/01/17 08:02:31;;;;;;;18.83;14.43;;;-1.60;99.90;;;;;;5122081;27;20055;-71
2024/01/17 08:04:57;;;;;;;18.07;15.20;;;-1.60;99.90;;;;;;5124064;27;20455;-72
2024/01/17 08:07:24;;;;;;;19.17;17.17;;;-1.70;99.90;;;;;;5114560;27;20041;-72
2024/01/17 08:09:54;;;;;;;19.23;16.73;;;-1.70;99.90;;;;;;5109468;27;20047;-72
2024/01/17 08:12:20;;;;;;;23.10;18.13;;;-1.80;99.90;;;;;;5104204;27;20046;-72
2024/01/17 08:14:46;;;;;;;19.90;17.07;;;-1.70;99.90;;;;;;5118157;27;20049;-72
2024/01/17 08:17:12;;;;;;;20.87;16.47;;;-1.70;99.90;;;;;;5145307;27;20074;-74
2024/01/17 08:19:39;;;;;;;19.67;15.97;;;-1.70;99.90;;;;;;5125577;27;20085;-75
2024/01/17 08:22:04;;;;;;;20.00;16.87;;;-1.70;99.90;;;;;;5118387;27;20034;-74
2024/01/17 08:24:31;;;;;;;20.07;17.03;;;-1.70;99.90;;;;;;5118256;27;20574;-74
2024/01/17 08:26:57;;;;;;;20.43;17.20;;;-1.70;99.90;;;;;;5128245;27;20041;-75
2024/01/17 08:29:23;;;;;;;18.23;15.97;;;-1.60;99.90;;;;;;5122929;27;20548;-70
2024/01/17 08:31:50;;;;;;;19.13;17.13;;;-1.70;99.90;;;;;;5124282;27;20039;-70
2024/01/17 08:34:16;;;;;;;20.63;16.77;;;-1.70;99.90;;;;;;5116621;27;20066;-70
2024/01/17 08:36:42;;;;;;;24.93;17.10;;;-1.70;99.90;;;;;;5120423;27;20055;-70
2024/01/17 08:39:08;;;;;;;18.63;16.37;;;-1.70;99.90;;;;;;5119178;27;20519;-70
2024/01/17 08:41:40;;;;;;;20.90;16.57;;;-1.70;99.90;;;;;;5129461;27;20042;-70
2024/01/17 08:44:05;;;;;;;21.30;17.30;;;-1.70;99.90;;;;;;5104293;27;20042;-70
2024/01/17 08:46:31;;;;;;;19.53;16.30;;;-1.70;99.90;;;;;;5119132;27;20034;-70
2024/01/17 08:48:57;;;;;;;20.00;16.17;;;-1.70;99.90;;;;;;5125034;27;20073;-71
2024/01/17 08:51:24;;;;;;;24.43;15.77;;;-1.70;99.90;;;;;;5140706;27;20099;-70
2024/01/17 08:53:50;;;;;;;18.33;16.43;;;-1.70;99.90;;;;;;5120306;27;20046;-70
2024/01/17 08:56:16;;;;;;;21.63;17.23;;;-1.70;99.90;;;;;;5124992;27;20042;-70
2024/01/17 08:58:42;;;;;;;21.90;15.40;;;-1.60;99.90;;;;;;5114908;27;20050;-70
2024/01/17 09:01:11;;;;;;;19.20;16.20;;;-1.60;99.90;;;;;;5103907;27;20092;-70
2024/01/17 09:03:38;;;;;;;20.20;16.47;;;-1.60;99.90;;;;;;5120646;27;20038;-70
2024/01/17 09:06:04;;;;;;;18.27;15.83;;;-1.60;99.90;;;;;;5110085;27;20062;-70
2024/01/17 09:08:30;;;;;;;18.43;16.03;;;-1.60;99.90;;;;;;5121601;27;20077;-70
2024/01/17 09:10:56;;;;;;;17.90;15.97;;;-1.60;99.90;;;;;;5122470;27;20074;-71
2024/01/17 09:13:21;;;;;;;16.90;14.90;;;-1.50;99.90;;;;;;5120608;27;20050;-71
2024/01/17 09:15:47;;;;;;;17.83;15.93;;;-1.50;99.90;;;;;;5118921;27;20047;-70
2024/01/17 09:18:17;;;;;;;18.67;15.80;;;-1.50;99.90;;;;;;5103321;27;20030;-70
2024/01/17 09:20:44;;;;;;;18.40;15.55;;;-1.50;99.90;;;;;;5119739;27;20513;-71
2024/01/17 09:23:10;;;;;;;18.53;15.97;;;-1.40;99.90;;;;;;5108802;27;20043;-70
2024/01/17 09:25:36;;;;;;;18.20;16.27;;;-1.40;99.90;;;;;;5133436;27;20043;-71
2024/01/17 09:28:02;;;;;;;18.47;15.63;;;-1.40;99.90;;;;;;5126726;27;20045;-71
2024/01/17 09:30:27;;;;;;;18.17;15.47;;;-1.30;99.90;;;;;;5123967;27;20076;-71
2024/01/17 09:32:53;;;;;;;18.17;15.63;;;-1.30;99.90;;;;;;5120978;27;20093;-70
2024/01/17 09:35:19;;;;;;;17.80;15.37;;;-1.30;99.90;;;;;;5116350;27;20070;-70
2024/01/17 09:37:45;;;;;;;18.53;14.50;;;-1.20;99.90;;;;;;5113099;27;20042;-70
2024/01/17 09:40:13;;;;;;;16.43;14.73;;;-1.20;99.90;;;;;;5123355;27;20133;-75
2024/01/17 09:42:40;;;;;;;16.60;14.47;;;-1.10;99.90;;;;;;5117741;27;20035;-75
2024/01/17 09:45:09;;;;;;;17.30;14.40;;;-1.10;99.90;;;;;;5137301;27;20066;-76
2024/01/17 09:47:36;;;;;;;19.37;14.77;;;-1.10;99.90;;;;;;5137174;27;20035;-75
2024/01/17 09:50:03;;;;;;;15.90;13.93;;;-1.00;99.90;;;;;;5117963;27;20046;-76
2024/01/17 09:52:32;;;;;;;16.20;14.47;;;-1.00;99.90;;;;;;5117884;27;20039;-75
2024/01/17 09:55:02;;;;;;;17.90;14.52;;;-0.90;99.90;;;;;;5115608;27;20122;-75
2024/01/17 09:57:34;;;;;;;18.60;14.30;;;-0.90;99.90;;;;;;5120316;27;20496;-71
2024/01/17 10:00:06;;;;;;;17.30;14.37;;;-0.90;99.90;;;;;;5124165;27;20125;-71
2024/01/17 10:02:35;;;;;;;17.50;14.93;;;-0.90;99.90;;;;;;5116901;27;20045;-71
2024/01/17 10:05:04;;;;;;;16.63;13.90;;;-0.80;99.90;;;;;;5107715;27;20737;-71
2024/01/17 10:07:30;;;;;;;17.03;14.30;;;-0.80;99.90;;;;;;5122718;27;20074;-71
2024/01/17 10:09:59;;;;;;;17.40;14.47;;;-0.80;99.90;;;;;;5114151;27;20429;-71
2024/01/17 10:12:28;;;;;;;16.87;13.80;;;-0.70;99.90;;;;;;5117806;27;20124;-71
2024/01/17 10:14:54;;;;;;;18.07;14.30;;;-0.80;99.90;;;;;;5124882;27;20511;-71
2024/01/17 10:17:20;;;;;;;16.40;13.03;;;-0.70;99.90;;;;;;5119388;27;20043;-71
2024/01/17 10:19:45;;;;;;;16.60;13.67;;;-0.70;99.90;;;;;;5119458;27;20568;-71
2024/01/17 10:22:11;;;;;;;16.70;14.07;;;-0.70;99.90;;;;;;5119255;27;20037;-71
2024/01/17 10:24:41;;;;;;;15.20;12.97;;;-0.70;99.90;;;;;;5122965;27;20058;-71
2024/01/17 10:27:07;;;;;;;15.02;12.98;;;-0.70;99.90;;;;;;5126463;27;20069;-71
2024/01/17 10:29:37;;;;;;;16.07;13.10;;;-0.60;99.90;;;;;;5122165;27;20595;-71
2024/01/17 10:32:03;;;;;;;15.77;13.20;;;-0.60;99.90;;;;;;5116879;27;20427;-71
2024/01/17 10:34:29;;;;;;;16.70;13.37;;;-0.50;99.90;;;;;;5113027;27;20054;-71
2024/01/17 10:36:56;;;;;;;15.90;12.57;;;-0.40;99.90;;;;;;5113227;27;20043;-71
2024/01/17 10:39:23;;;;;;;13.77;12.30;;;-0.50;99.90;;;;;;5114993;27;20031;-71
2024/01/17 10:41:54;;;;;;;17.00;12.60;;;-0.50;99.90;;;;;;5123943;27;20039;-71
2024/01/17 10:44:27;;;;;;;14.60;12.53;;;-0.50;99.90;;;;;;5121779;27;20048;-71
2024/01/17 10:46:54;;;;;;;15.60;12.60;;;-0.40;99.90;;;;;;5116815;27;20524;-71
2024/01/17 10:49:21;;;;;;;15.93;12.23;;;-0.40;99.90;;;;;;5126688;27;20508;-71
2024/01/17 10:52:05;;;;;;;14.57;12.03;;;-0.40;99.90;;;;;;5115544;27;20047;-71
2024/01/17 10:54:46;;;;;;;13.80;12.07;;;-0.40;99.90;;;;;;5126305;27;20058;-71
2024/01/17 10:57:14;;;;;;;13.83;12.17;;;-0.40;99.90;;;;;;5113261;27;20058;-71
2024/01/17 10:59:42;;;;;;;17.00;12.93;;;-0.30;99.90;;;;;;5100837;27;20039;-73
2024/01/17 11:02:19;;;;;;;14.87;12.50;;;-0.30;99.90;;;;;;5120580;27;20561;-71
2024/01/17 11:04:48;;;;;;;16.10;11.73;;;-0.30;99.90;;;;;;5099638;27;20039;-71
2024/01/17 11:07:16;;;;;;;13.77;12.03;;;-0.20;99.90;;;;;;5111815;27;20042;-72
2024/01/17 11:09:45;;;;;;;14.47;12.07;;;-0.20;99.90;;;;;;5119998;27;20106;-71
2024/01/17 11:12:14;;;;;;;14.00;12.43;;;-0.20;99.90;;;;;;5117384;27;20047;-71
2024/01/17 11:14:41;;;;;;;13.70;11.73;;;-0.20;99.90;;;;;;5115168;27;20043;-72
2024/01/17 11:17:08;;;;;;;14.13;11.47;;;-0.10;99.90;;;;;;5104150;27;20049;-71
2024/01/17 11:19:36;;;;;;;14.97;12.03;;;-0.10;99.90;;;;;;5108135;27;20043;-72
2024/01/17 11:22:02;;;;;;;13.97;11.53;;;-0.10;99.90;;;;;;5127557;27;20038;-72
2024/01/17 11:24:43;;;;;;;14.97;12.47;;;-0.10;99.90;;;;;;5128784;27;20091;-72
2024/01/17 11:27:15;;;;;;;14.93;10.87;;;-0.10;99.90;;;;;;5124325;27;20087;-72
2024/01/17 11:30:03;;;;;;;15.30;11.83;;;0.00;99.90;;;;;;5119214;27;20043;-72
2024/01/17 11:33:02;;;;;;;14.17;12.50;;;-0.10;99.90;;;;;;5113227;27;20054;-71
2024/01/17 11:35:43;;;;;;;14.23;11.43;;;0.00;99.90;;;;;;5123181;27;20043;-72
2024/01/17 11:38:24;;;;;;;15.30;11.80;;;0.00;99.90;;;;;;5110292;27;20041;-72
2024/01/17 11:40:54;;;;;;;16.57;11.80;;;0.10;99.90;;;;;;5111140;27;20042;-71
2024/01/17 11:43:21;;;;;;;16.52;11.60;;;0.00;99.90;;;;;;5138891;27;20445;-72
2024/01/17 11:45:50;;;;;;;15.77;11.80;;;0.00;99.90;;;;;;5124941;27;20046;-71
2024/01/17 11:48:18;;;;;;;12.90;11.55;;;0.00;99.90;;;;;;5118038;27;20058;-71
2024/01/17 11:51:04;;;;;;;15.00;12.10;;;0.00;99.90;;;;;;5120514;27;20512;-72
2024/01/17 11:53:32;;;;;;;18.97;13.13;;;0.00;99.90;;;;;;5122991;27;20110;-71
2024/01/17 11:56:00;;;;;;;15.07;12.13;;;0.00;99.90;;;;;;5125008;27;20047;-76
2024/01/17 11:58:47;;;;;;;18.37;12.90;;;0.10;99.90;;;;;;5104244;27;20044;-77
2024/01/17 12:01:38;;;;;;;13.80;11.43;;;0.10;99.90;;;;;;5119938;27;20031;-77
2024/01/17 12:04:11;;;;;;;15.50;11.40;;;0.10;99.90;;;;;;5115974;27;20043;-76
2024/01/17 12:06:37;;;;;;;15.83;12.27;;;0.10;99.90;;;;;;5123917;27;20449;-77
2024/01/17 12:09:05;;;;;;;15.83;11.73;;;0.10;99.90;;;;;;5117372;27;20046;-77
2024/01/17 12:11:31;;;;;;;13.77;10.93;;;0.10;99.90;;;;;;5119813;27;20043;-77
2024/01/17 12:13:57;;;;;;;14.43;11.70;;;0.10;99.90;;;;;;5122065;27;20038;-77
2024/01/17 12:16:23;;;;;;;14.00;12.30;;;0.20;99.90;;;;;;5119312;27;20038;-78
2024/01/17 12:19:00;;;;;;;12.73;11.17;;;0.20;99.90;;;;;;5119060;27;20049;-77
2024/01/17 12:21:30;;;;;;;16.33;12.73;;;0.30;99.90;;;;;;5127222;27;20465;-72
2024/01/17 12:23:56;;;;;;;;;;;0.30;99.90;;;;;;5124662;27;20397;-72
2024/01/17 12:26:22;;;;;;;12.83;11.13;;;0.30;99.90;;;;;;5122918;27;19919;-71
2024/01/17 12:28:48;;;;;;;13.03;10.77;;;0.30;99.90;;;;;;5109398;27;20053;-72
2024/01/17 12:31:16;;;;;;;12.90;10.73;;;0.30;99.90;;;;;;5100476;27;20046;-72